map of KCPC home
KCPC - Airport
Location
City:  Whiteville, North Carolina, United States
Name:Columbus County Municipal Airport
ICAO:KCPC
FAA LID:CPC

Details
Type:Airport (Airfield)
Use:Public/Civil
Latitude:3416'22"N (34.272861)
Longitude:7842'54"W (-78.714999)
Datum:WGS 1984
Elevation:99 ft (30 m)
Variation:8.99W (WMM2015 magnetic declination)
-0.05 annual change
Runways:1
Longest:5500 × 75 ft (1676 × 23 m), paved

Time
Time Zone:UTC-5 (DST-4)
Local Time:

Weather
METAR:KCPC 181840Z AUTO 00000KT 10SM BKN060 18/09 A3022 RMK AO2 T01800093

Related Locations
Nearby:
Farthest:MQZ: 11652 mi / 18753 km
Margaret River [Margaret River Airport], WA, AU

Find:

   beyond  
but within

Other Information
Maps:
NOTAMs:
Links:
Sources:

  
  • flag of United States
  • flag of North Carolina
  

Sectional Chart

Flight Planning
at skyvector.com

Satellite Image

Google Maps Satellite view

 

Copyright © 2004-2018 Karl L. Swartz. All rights reserved.
The Great Circle Mapper name and logo are trademarks of the Great Circle Mapper.
All other trademarks mentioned herein belong to their respective owners.
Please see credits for attibutions and further copyright information.

  Follow gcmap on Facebook Follow gcmap on Twitter Follow gcmap on Google+ GCmap on LinkedIn

hCard Microformat

Geo Microformat